Pioneer Knutsen — LMIK — position and weather

sailwx.info

Track history (hours):
 
Tides and Currents Weather Stations Pressure Air Temp Water Temp Dewpoint Dewpoint Depression Visibility Wind Speed Wind Dir Waves Ship Positions

Pioneer Knutsen

Last reported at 2017-May-24 21:30 UTC. Time now 2017-May-24 21:37 UTC.
Position N 62°59' E 007°60'.

Length 70 m; draft 3.6 m.

Type: Ship. MMSI: 259393000.

Date/timePositionNaut miles runAvg speedWind from/ knotsBaromVisibWave heightAir tempDewpointWater temp
2017-May-24 21:30N 62°59' E 007°60'612.0
2017-May-24 21:01N 62°58' E 007°47'5 9.5
2017-May-24 20:30N 63°02' E 007°53'510.2
2017-May-24 20:00N 63°07' E 007°54'5 9.4
2017-May-24 19:30N 63°12' E 007°50'510.2
2017-May-24 19:00N 63°14' E 007°59'510.0
2017-May-24 18:30N 63°17' E 008°09'5 9.8
2017-May-24 17:59N 63°20' E 008°18'510.2
2017-May-24 17:30N 63°23' E 008°26'510.1
2017-May-24 16:59N 63°25' E 008°37'510.1
2017-May-24 16:29N 63°27' E 008°47'510.4
2017-May-24 16:00N 63°29' E 008°58'510.3
2017-May-24 15:30N 63°31' E 009°08'510.7
2017-May-24 15:00N 63°34' E 009°19'510.3
2017-May-24 14:30N 63°37' E 009°28'1110.9
2017-May-24 13:30N 63°48' E 009°34'2 4.7
2017-May-24 13:00N 63°49' E 009°38'0 0.0
2017-May-24 12:30N 63°49' E 009°38'0 0.0
2017-May-24 12:00N 63°49' E 009°38'0 0.0
2017-May-24 11:30N 63°49' E 009°38'0 0.0
2017-May-24 11:00N 63°49' E 009°38'0 0.9
2017-May-24 10:30N 63°49' E 009°38'510.7
2017-May-24 10:00N 63°44' E 009°32'611.9
2017-May-24 09:31N 63°38' E 009°29'611.4
2017-May-24 09:00N 63°34' E 009°21'612.5
2017-May-24 08:30N 63°31' E 009°08'612.2
2017-May-24 08:00N 63°28' E 008°56'612.1
2017-May-24 07:30N 63°26' E 008°43'612.3
2017-May-24 06:59N 63°23' E 008°30'612.2
2017-May-24 06:30N 63°20' E 008°19'612.5
2017-May-24 06:00N 63°16' E 008°08'612.2
2017-May-24 05:31N 63°13' E 007°57'612.3
2017-May-24 05:01N 63°10' E 007°45'612.2
2017-May-24 04:30N 63°07' E 007°34'612.0
2017-May-24 04:00N 63°04' E 007°22'612.0
2017-May-24 03:30N 63°02' E 007°10'612.0
2017-May-24 03:00N 62°60' E 006°57'612.0
2017-May-24 02:30N 62°58' E 006°45'612.1
2017-May-24 02:00N 62°55' E 006°32'611.9
2017-May-24 01:30N 62°53' E 006°21'612.0
2017-May-24 01:00N 62°50' E 006°09'611.8
2017-May-24 00:30N 62°46' E 005°60'611.7
2017-May-24 00:00N 62°42' E 005°51'611.6
2017-May-23 23:30N 62°38' E 005°42'611.4
2017-May-23 23:00N 62°33' E 005°34'611.7
2017-May-23 22:30N 62°29' E 005°26'611.8
2017-May-23 22:00N 62°24' E 005°18'612.0
2017-May-23 21:30N 62°19' E 005°11'612.5
2017-May-23 21:00N 62°14' E 005°03'612.3
2017-May-23 20:30N 62°09' E 004°56'612.4
2017-May-23 20:01N 62°03' E 004°50'612.4
2017-May-23 19:30N 61°58' E 004°44'612.4
2017-May-23 19:00N 61°52' E 004°38'612.4
2017-May-23 18:30N 61°47' E 004°33'612.2
2017-May-23 18:00N 61°41' E 004°27'612.2
2017-May-23 17:29N 61°35' E 004°26'612.3
2017-May-23 17:00N 61°29' E 004°26'612.3
2017-May-23 16:30N 61°23' E 004°26'612.5
2017-May-23 16:00N 61°16' E 004°26'612.5
2017-May-23 15:30N 61°10' E 004°25'612.7
2017-May-23 15:00N 61°04' E 004°25'612.4
2017-May-23 14:30N 60°58' E 004°30'1212.0
2017-May-23 13:30N 60°48' E 004°44'612.2
2017-May-23 13:00N 60°43' E 004°49'612.1
2017-May-23 12:30N 60°37' E 004°53'4 7.9
2017-May-23 12:00N 60°33' E 004°53'0 0.0
2017-May-23 11:29N 60°33' E 004°53'0 0.0
2017-May-23 10:59N 60°33' E 004°53'0 0.0
2017-May-23 10:29N 60°33' E 004°53'0 0.0
2017-May-23 09:59N 60°33' E 004°53'0 0.0
2017-May-23 09:29N 60°33' E 004°53'0 0.0
2017-May-23 08:58N 60°33' E 004°53'0 0.0
2017-May-23 08:28N 60°33' E 004°53'0 0.0
2017-May-23 07:58N 60°33' E 004°53'0 0.0
2017-May-23 07:25N 60°33' E 004°53'0 0.0
2017-May-23 06:58N 60°33' E 004°53'0 0.0
2017-May-23 06:30N 60°33' E 004°53'0 0.0
2017-May-23 06:00N 60°33' E 004°53'0 0.0
2017-May-23 05:30N 60°33' E 004°53'1 1.6
2017-May-23 05:00N 60°34' E 004°54'5 9.7
2017-May-23 04:30N 60°38' E 004°52'5 9.6
2017-May-23 04:00N 60°43' E 004°48'5 9.9
2017-May-23 03:30N 60°48' E 004°44'5 9.5
2017-May-23 03:00N 60°52' E 004°40'510.1
2017-May-23 02:30N 60°56' E 004°35'611.2
2017-May-23 02:00N 61°01' E 004°29'611.1
2017-May-23 01:30N 61°07' E 004°28'611.8
2017-May-23 01:00N 61°12' E 004°29'612.1
2017-May-23 00:30N 61°18' E 004°29'612.0
2017-May-23 00:00N 61°24' E 004°29'612.0
2017-May-22 23:30N 61°31' E 004°29'612.3
2017-May-22 23:00N 61°37' E 004°30'612.1
2017-May-22 22:30N 61°42' E 004°33'611.9
2017-May-22 21:59N 61°48' E 004°37'611.9
2017-May-22 21:29N 61°54' E 004°42'611.8
2017-May-22 21:00N 61°59' E 004°47'611.6
2017-May-22 20:30N 62°04' E 004°52'611.5
2017-May-22 20:00N 62°09' E 004°59'611.4
2017-May-22 19:30N 62°14' E 005°06'611.8
2017-May-22 18:59N 62°18' E 005°15'612.1
2017-May-22 18:30N 62°22' E 005°24'611.9
2017-May-22 18:00N 62°26' E 005°34'611.7
2017-May-22 17:30N 62°27' E 005°46'612.0
2017-May-22 17:00N 62°27' E 005°59'611.1
2017-May-22 16:30N 62°31' E 006°09'611.7
2017-May-22 16:00N 62°36' E 006°15'611.8
2017-May-22 15:30N 62°40' E 006°25'611.9
2017-May-22 15:00N 62°45' E 006°32'1211.8
2017-May-22 14:00N 62°55' E 006°46'611.6
2017-May-22 13:30N 62°59' E 006°54'611.9
2017-May-22 13:00N 63°01' E 007°07'611.6
2017-May-22 12:30N 63°03' E 007°19'611.5
2017-May-22 12:00N 63°06' E 007°29'611.4
2017-May-22 11:30N 63°09' E 007°40'611.4
2017-May-22 11:00N 63°12' E 007°50'611.3
2017-May-22 10:30N 63°15' E 008°02'510.8
2017-May-22 10:00N 63°18' E 008°12'611.1
2017-May-22 09:29N 63°21' E 008°21'510.9
2017-May-22 09:00N 63°24' E 008°31'510.9
2017-May-22 08:30N 63°26' E 008°42'510.7
2017-May-22 07:59N 63°28' E 008°54'510.5
2017-May-22 07:30N 63°30' E 009°05'510.3
2017-May-22 07:00N 63°32' E 009°15'511.1
2017-May-22 06:31N 63°35' E 009°26'611.0
2017-May-22 06:00N 63°40' E 009°28'611.1
2017-May-22 05:30N 63°46' E 009°32'611.5
2017-May-22 05:00N 63°51' E 009°39'510.9
2017-May-22 04:30N 63°55' E 009°47'611.8
2017-May-22 04:00N 64°01' E 009°47'510.3
2017-May-22 03:29N 64°05' E 009°55'510.9
2017-May-22 03:00N 64°08' E 010°05'611.3
2017-May-22 02:30N 64°13' E 010°12'510.7
2017-May-22 02:00N 64°17' E 010°19'510.9
2017-May-22 01:30N 64°21' E 010°26'611.4
2017-May-22 01:00N 64°27' E 010°27'611.7
2017-May-22 00:29N 64°32' E 010°36'611.9
2017-May-21 23:59N 64°37' E 010°43'612.1
2017-May-21 23:30N 64°42' E 010°51'612.1
2017-May-21 23:00N 64°46' E 011°01'612.1
2017-May-21 22:30N 64°50' E 011°11'612.0
2017-May-21 22:00N 64°54' E 011°21'611.9
2017-May-21 21:31N 64°58' E 011°32'611.4
2017-May-21 21:00N 65°02' E 011°42'611.6
2017-May-21 20:30N 65°07' E 011°48'611.8
2017-May-21 20:00N 65°12' E 011°53'611.9
2017-May-21 19:30N 65°18' E 011°59'4 9.1
2017-May-21 19:00N 65°22' E 012°00'510.5
2017-May-21 18:30N 65°28' E 011°57'612.0
2017-May-21 18:00N 65°33' E 012°04'611.7
2017-May-21 17:30N 65°38' E 012°12'612.3
2017-May-21 17:00N 65°43' E 012°17'612.1
2017-May-21 16:30N 65°48' E 012°26'611.8
2017-May-21 16:00N 65°53' E 012°35'611.5
2017-May-21 15:30N 65°57' E 012°44'5 9.6
2017-May-21 14:59N 65°57' E 012°56'611.5
2017-May-21 14:30N 65°54' E 013°08'3 3.3
2017-May-21 13:28N 65°51' E 013°11'0 0.0
2017-May-21 13:00N 65°51' E 013°11'0 0.0
2017-May-21 12:30N 65°51' E 013°11'0 0.0
2017-May-21 11:59N 65°51' E 013°11'0 0.0
2017-May-21 11:29N 65°51' E 013°11'0 0.0
2017-May-21 10:56N 65°51' E 013°11'0 0.0
2017-May-21 10:26N 65°51' E 013°11'0 0.0
2017-May-21 09:59N 65°51' E 013°11'0 0.0
2017-May-21 09:30N 65°51' E 013°11'3 6.4
2017-May-21 08:59N 65°54' E 013°08'611.7
2017-May-21 08:30N 65°57' E 012°56'5 9.3
2017-May-21 08:00N 65°57' E 012°45'511.1
2017-May-21 07:30N 65°53' E 012°35'610.9
2017-May-21 07:00N 65°49' E 012°28'611.2
2017-May-21 06:30N 65°45' E 012°19'611.6
2017-May-21 06:00N 65°39' E 012°13'611.1
2017-May-21 05:30N 65°34' E 012°07'611.2
2017-May-21 05:00N 65°29' E 011°59'510.5
2017-May-21 04:30N 65°24' E 011°58'5 9.6
2017-May-21 04:00N 65°20' E 012°01'611.6
2017-May-21 03:30N 65°15' E 011°55'611.7
2017-May-21 03:00N 65°09' E 011°50'611.6
2017-May-21 02:30N 65°04' E 011°45'611.4
2017-May-21 02:00N 65°00' E 011°35'611.7
2017-May-21 01:30N 64°56' E 011°25'611.6
2017-May-21 01:00N 64°52' E 011°16'611.2
2017-May-21 00:30N 64°48' E 011°06'611.7
2017-May-21 00:00N 64°44' E 010°56'611.4
2017-May-20 23:30N 64°40' E 010°47'611.3
2017-May-20 22:59N 64°35' E 010°40'611.2
2017-May-20 22:30N 64°30' E 010°33'510.2
2017-May-20 22:00N 64°26' E 010°27'511.1
2017-May-20 21:30N 64°21' E 010°22'611.4
2017-May-20 21:00N 64°15' E 010°19'611.2
2017-May-20 20:30N 64°11' E 010°09'510.6
2017-May-20 19:59N 64°07' E 010°02'510.9
2017-May-20 19:30N 64°04' E 009°52'5 9.7
2017-May-20 19:00N 63°60' E 009°47'510.8
2017-May-20 18:30N 63°54' E 009°46'510.6
2017-May-20 18:00N 63°50' E 009°38'510.8
2017-May-20 17:30N 63°46' E 009°32'510.7
2017-May-20 17:00N 63°41' E 009°29'510.3
2017-May-20 16:30N 63°35' E 009°26'611.1
2017-May-20 15:59N 63°33' E 009°16'511.0
2017-May-20 15:30N 63°30' E 009°05'510.6
2017-May-20 15:00N 63°28' E 008°54'610.9
2017-May-20 14:30N 63°26' E 008°43'1010.6
2017-May-20 13:30N 63°21' E 008°22'510.6
2017-May-20 13:00N 63°18' E 008°13'5 9.9
2017-May-20 12:30N 63°15' E 008°03'510.1
2017-May-20 12:00N 63°13' E 007°54'510.2
2017-May-20 11:30N 63°09' E 007°45'4 7.1
2017-May-20 11:00N 63°06' E 007°45'1 2.6
2017-May-20 10:29N 63°06' E 007°48'0 0.0
2017-May-20 09:59N 63°06' E 007°48'0 0.0
2017-May-20 09:29N 63°06' E 007°48'0 0.0
2017-May-20 08:59N 63°06' E 007°48'1 1.7
2017-May-20 08:30N 63°06' E 007°46'5 9.7
2017-May-20 08:00N 63°07' E 007°36'5 9.8
2017-May-20 07:30N 63°05' E 007°27'5 9.4
2017-May-20 07:00N 63°03' E 007°17'5 9.4
2017-May-20 06:30N 63°01' E 007°07'4 8.8
2017-May-20 06:00N 62°60' E 006°58'4 8.5
2017-May-20 05:30N 62°57' E 006°50'4 8.2
2017-May-20 05:00N 62°54' E 006°45'4 9.0
2017-May-20 04:30N 62°50' E 006°40'510.1
2017-May-20 04:00N 62°46' E 006°34'510.8
2017-May-20 03:30N 62°41' E 006°28'510.5
2017-May-20 03:00N 62°37' E 006°20'510.6
2017-May-20 02:30N 62°34' E 006°12'510.7
2017-May-20 02:00N 62°29' E 006°07'510.4
2017-May-20 01:30N 62°24' E 006°04'5 9.8
2017-May-20 01:00N 62°19' E 006°04'610.9
2017-May-20 00:30N 62°15' E 005°57'510.5
2017-May-20 00:00N 62°12' E 005°47'611.2
2017-May-19 23:30N 62°11' E 005°36'510.5
2017-May-19 23:00N 62°11' E 005°24'5 9.6
2017-May-19 22:30N 62°13' E 005°15'4 8.5
2017-May-19 22:00N 62°12' E 005°06'5 9.3
2017-May-19 21:30N 62°07' E 005°05'612.0
2017-May-19 21:00N 62°02' E 005°09'611.0
2017-May-19 20:30N 61°56' E 005°08'5 9.2
2017-May-19 20:00N 61°52' E 005°13'3 6.7
2017-May-19 19:30N 61°49' E 005°11'611.0
2017-May-19 19:00N 61°46' E 005°02'510.6
2017-May-19 18:30N 61°41' E 004°58'611.2
2017-May-19 18:00N 61°35' E 004°57'510.5
2017-May-19 17:29N 61°30' E 004°60'611.7
2017-May-19 17:00N 61°26' E 004°52'611.2
2017-May-19 16:30N 61°20' E 004°49'611.4
2017-May-19 15:59N 61°15' E 004°55'511.0
2017-May-19 15:30N 61°10' E 005°01'510.9
2017-May-19 15:00N 61°05' E 005°01'1110.7
2017-May-19 14:00N 60°57' E 004°47'611.2
2017-May-19 13:30N 60°51' E 004°46'510.3
2017-May-19 13:00N 60°46' E 004°47'611.1
2017-May-19 12:30N 60°41' E 004°51'510.8
2017-May-19 12:00N 60°36' E 004°54'3 5.3
2017-May-19 11:29N 60°33' E 004°53'0 0.0
2017-May-19 10:59N 60°33' E 004°53'0 0.0
2017-May-19 10:28N 60°33' E 004°53'0 0.0
2017-May-19 09:55N 60°33' E 004°53'0 0.0
2017-May-19 09:28N 60°33' E 004°53'0 0.0
2017-May-19 08:58N 60°33' E 004°53'0 0.0
2017-May-19 08:28N 60°33' E 004°53'0 0.0
2017-May-19 08:00N 60°33' E 004°53'0 0.0
2017-May-19 07:30N 60°33' E 004°53'0 0.0
2017-May-19 06:57N 60°33' E 004°53'0 0.0
2017-May-19 06:30N 60°33' E 004°53'0 0.0
2017-May-19 05:59N 60°33' E 004°53'0 0.0
2017-May-19 05:26N 60°33' E 004°53'2 3.9
2017-May-19 05:00N 60°35' E 004°54'510.4
2017-May-19 04:30N 60°40' E 004°50'611.9
2017-May-19 04:00N 60°45' E 004°46'510.8
2017-May-19 03:30N 60°51' E 004°45'5 9.9
2017-May-19 03:00N 60°55' E 004°46'5 9.2
2017-May-19 02:30N 61°00' E 004°48'510.2
2017-May-19 02:00N 61°03' E 004°56'510.2
2017-May-19 01:30N 61°06' E 005°05'4 8.3
2017-May-19 01:00N 61°10' E 005°04'5 9.0
2017-May-19 00:30N 61°14' E 004°59'4 7.1
2017-May-19 00:00N 61°17' E 004°56'4 8.8
2017-May-18 23:30N 61°20' E 005°03'5 9.9
2017-May-18 22:59N 61°24' E 004°59'5 9.7
2017-May-18 22:30N 61°29' E 004°59'5 9.3
2017-May-18 22:00N 61°34' E 004°59'4 8.6
2017-May-18 21:30N 61°38' E 004°59'5 9.6
2017-May-18 21:00N 61°43' E 004°57'5 9.3
2017-May-18 20:30N 61°46' E 005°03'5 9.5
2017-May-18 20:00N 61°49' E 005°11'3 6.4
2017-May-18 19:30N 61°52' E 005°13'5 9.4
2017-May-18 19:00N 61°56' E 005°08'510.6
2017-May-18 18:30N 62°02' E 005°09'611.5
2017-May-18 18:00N 62°07' E 005°05'510.6
2017-May-18 17:30N 62°12' E 005°07'5 9.5
2017-May-18 17:00N 62°12' E 005°17'5 9.7
2017-May-18 16:30N 62°12' E 005°27'611.3
2017-May-18 16:00N 62°11' E 005°39'611.3
2017-May-18 15:30N 62°13' E 005°51'511.0
2017-May-18 15:00N 62°17' E 005°59'611.6
2017-May-18 14:31N 62°21' E 006°07'10 9.9
2017-May-18 13:30N 62°31' E 006°08'611.4
2017-May-18 13:00N 62°36' E 006°16'611.7
2017-May-18 12:30N 62°40' E 006°25'612.1
2017-May-18 12:00N 62°45' E 006°32'612.3
2017-May-18 11:30N 62°50' E 006°39'612.3
2017-May-18 11:00N 62°55' E 006°47'611.7
2017-May-18 10:30N 62°59' E 006°55'611.9
2017-May-18 10:00N 63°01' E 007°07'611.7
2017-May-18 09:30N 63°03' E 007°20'612.1
2017-May-18 09:00N 63°06' E 007°31'611.9
2017-May-18 08:30N 63°10' E 007°42'612.0
2017-May-18 08:00N 63°13' E 007°53'612.2
2017-May-18 07:30N 63°16' E 008°05'612.0
2017-May-18 07:00N 63°19' E 008°17'612.0
2017-May-18 06:30N 63°23' E 008°26'612.4
2017-May-18 06:00N 63°26' E 008°39'612.4
2017-May-18 05:30N 63°28' E 008°52'612.2
2017-May-18 05:00N 63°30' E 009°05'612.6
2017-May-18 04:29N 63°33' E 009°17'611.9
2017-May-18 04:00N 63°37' E 009°27'611.2
2017-May-18 03:30N 63°42' E 009°30'611.6
2017-May-18 03:01N 63°48' E 009°34'612.1
2017-May-18 02:30N 63°53' E 009°43'611.2
2017-May-18 02:00N 63°58' E 009°47'611.2
2017-May-18 01:30N 64°03' E 009°50'611.9
2017-May-18 01:00N 64°07' E 010°01'611.6
2017-May-18 00:30N 64°11' E 010°10'611.6
2017-May-18 00:00N 64°15' E 010°19'611.8
2017-May-17 23:30N 64°21' E 010°22'611.8
2017-May-17 23:00N 64°27' E 010°27'611.3
2017-May-17 22:29N 64°31' E 010°35'611.6
2017-May-17 22:00N 64°36' E 010°40'611.8
2017-May-17 21:30N 64°41' E 010°49'611.9
2017-May-17 21:00N 64°45' E 010°59'612.2
2017-May-17 20:30N 64°49' E 011°09'611.6
2017-May-17 20:00N 64°53' E 011°19'611.7
2017-May-17 19:30N 64°57' E 011°29'611.9
2017-May-17 19:01N 65°01' E 011°40'612.2
2017-May-17 18:30N 65°06' E 011°48'612.2
2017-May-17 18:00N 65°12' E 011°52'612.1
2017-May-17 17:30N 65°17' E 011°58'510.0
2017-May-17 17:00N 65°22' E 012°00'510.3
2017-May-17 16:30N 65°27' E 011°57'611.8
2017-May-17 16:00N 65°33' E 012°03'611.6
2017-May-17 15:29N 65°37' E 012°12'611.8
2017-May-17 14:59N 65°43' E 012°16'1111.3
2017-May-17 14:00N 65°52' E 012°33'611.1
2017-May-17 13:28N 65°57' E 012°42'510.3
2017-May-17 12:59N 65°58' E 012°53'611.7
2017-May-17 12:30N 65°55' E 013°04'5 4.2
2017-May-17 11:19N 65°51' E 013°11'0 0.0
2017-May-17 10:57N 65°51' E 013°11'0 0.0
2017-May-17 10:30N 65°51' E 013°11'0 0.0
2017-May-17 09:57N 65°51' E 013°11'0 0.0
2017-May-17 09:30N 65°51' E 013°11'0 0.0
2017-May-17 08:59N 65°51' E 013°11'910.8
2017-May-17 08:11N 65°57' E 012°57'0 0.6
2017-May-17 07:58N 65°57' E 012°56'3 7.1
2017-May-17 07:30N 65°58' E 012°48'611.7
2017-May-17 07:00N 65°55' E 012°38'611.5
2017-May-17 06:30N 65°50' E 012°30'611.9
2017-May-17 06:00N 65°45' E 012°20'612.6
2017-May-17 05:31N 65°40' E 012°14'612.2
2017-May-17 05:00N 65°34' E 012°07'612.3
2017-May-17 04:30N 65°29' E 011°59'611.3
2017-May-17 04:00N 65°23' E 011°59'5 9.3
2017-May-17 03:30N 65°19' E 011°60'612.5
2017-May-17 03:01N 65°13' E 011°54'612.3
2017-May-17 02:30N 65°07' E 011°50'612.4
2017-May-17 02:00N 65°02' E 011°42'611.6
2017-May-17 01:31N 64°58' E 011°32'612.1
2017-May-17 01:01N 64°54' E 011°21'612.7
2017-May-17 00:31N 64°50' E 011°10'612.1
2017-May-17 00:00N 64°45' E 011°00'611.7
2017-May-16 23:30N 64°41' E 010°50'611.9
2017-May-16 23:00N 64°37' E 010°41'612.0
2017-May-16 22:30N 64°32' E 010°33'611.9
2017-May-16 22:00N 64°27' E 010°27'611.0
2017-May-16 21:30N 64°21' E 010°26'511.0
2017-May-16 21:00N 64°17' E 010°19'611.3
2017-May-16 20:30N 64°12' E 010°11'611.9
2017-May-16 20:00N 64°07' E 010°03'612.3
2017-May-16 19:30N 64°04' E 009°52'611.0
2017-May-16 18:59N 63°59' E 009°47'611.8
2017-May-16 18:30N 63°53' E 009°44'612.1
2017-May-16 18:00N 63°49' E 009°35'2 3.1
2017-May-16 17:30N 63°49' E 009°38'0 0.0
2017-May-16 16:58N 63°49' E 009°38'0 0.0
2017-May-16 16:28N 63°49' E 009°38'0 0.0
2017-May-16 15:58N 63°49' E 009°38'0 0.0
2017-May-16 15:28N 63°49' E 009°38'0 0.0
2017-May-16 14:58N 63°49' E 009°38'0 0.0
2017-May-16 14:30N 63°49' E 009°38'8 8.2
2017-May-16 13:30N 63°42' E 009°30'510.9
2017-May-16 13:00N 63°37' E 009°24'611.0
2017-May-16 12:30N 63°33' E 009°15'612.3
2017-May-16 12:00N 63°30' E 009°04'611.9
2017-May-16 11:30N 63°27' E 008°52'612.1
2017-May-16 11:00N 63°25' E 008°39'612.1
2017-May-16 10:30N 63°22' E 008°27'612.4
2017-May-16 10:00N 63°19' E 008°16'612.5
2017-May-16 09:30N 63°15' E 008°05'612.4
2017-May-16 09:00N 63°12' E 007°53'612.0
2017-May-16 08:30N 63°09' E 007°41'612.4
2017-May-16 08:00N 63°06' E 007°30'612.0
2017-May-16 07:30N 63°03' E 007°18'611.7
2017-May-16 07:00N 63°01' E 007°06'612.1
2017-May-16 06:30N 62°59' E 006°53'612.0
2017-May-16 06:00N 62°54' E 006°45'612.3
2017-May-16 05:30N 62°49' E 006°38'612.1
2017-May-16 05:00N 62°44' E 006°31'612.1
2017-May-16 04:30N 62°39' E 006°24'611.0
2017-May-16 03:59N 62°35' E 006°15'611.5
2017-May-16 03:30N 62°30' E 006°09'510.9
2017-May-16 03:00N 62°27' E 005°59'611.4
2017-May-16 02:30N 62°27' E 005°46'611.7
2017-May-16 02:00N 62°26' E 005°34'611.5
2017-May-16 01:30N 62°23' E 005°24'611.5
2017-May-16 01:00N 62°18' E 005°16'611.8
2017-May-16 00:30N 62°14' E 005°08'611.3
2017-May-16 00:00N 62°08' E 005°05'611.7
2017-May-15 23:30N 62°03' E 005°09'611.4
2017-May-15 23:00N 61°57' E 005°09'5 9.2
2017-May-15 22:30N 61°53' E 005°12'3 6.8
2017-May-15 22:00N 61°49' E 005°11'612.3
2017-May-15 21:29N 61°45' E 005°01'611.4
2017-May-15 21:00N 61°40' E 004°58'611.3
2017-May-15 20:29N 61°34' E 004°58'511.0
2017-May-15 20:00N 61°29' E 004°59'612.6
2017-May-15 19:30N 61°24' E 004°50'611.3
2017-May-15 19:00N 61°18' E 004°52'612.1
2017-May-15 18:30N 61°13' E 004°58'611.7
2017-May-15 18:00N 61°08' E 005°02'611.4
2017-May-15 17:30N 61°03' E 004°56'611.5
2017-May-15 16:59N 60°59' E 004°47'611.4
2017-May-15 16:29N 60°53' E 004°46'611.8
2017-May-15 16:01N 60°48' E 004°45'612.1
2017-May-15 15:30N 60°42' E 004°50'612.2
2017-May-15 15:00N 60°36' E 004°54'3 3.0
2017-May-15 14:01N 60°33' E 004°53'0 0.0
2017-May-15 13:30N 60°33' E 004°53'0 0.0
2017-May-15 13:00N 60°33' E 004°53'0 0.0
2017-May-15 12:30N 60°33' E 004°53'0 0.0
2017-May-15 12:00N 60°33' E 004°53'0 0.0
2017-May-15 11:29N 60°33' E 004°53'0 0.0
2017-May-15 10:59N 60°33' E 004°53'0 0.0
2017-May-15 10:29N 60°33' E 004°53'0 0.0
2017-May-15 09:59N 60°33' E 004°53'0 0.0
2017-May-15 09:29N 60°33' E 004°53'0 0.0
2017-May-15 08:58N 60°33' E 004°53'0 0.0
2017-May-15 08:28N 60°33' E 004°53'2 4.5
2017-May-15 08:00N 60°35' E 004°54'611.6
2017-May-15 07:30N 60°41' E 004°50'611.8
2017-May-15 07:00N 60°46' E 004°46'510.3
2017-May-15 06:29N 60°51' E 004°45'5 9.7
2017-May-15 06:00N 60°56' E 004°46'510.0
2017-May-15 05:30N 61°01' E 004°50'612.1
2017-May-15 05:00N 61°05' E 004°59'611.4
2017-May-15 04:30N 61°10' E 005°01'510.9
2017-May-15 04:00N 61°15' E 004°54'510.9
2017-May-15 03:31N 61°19' E 004°48'611.4
2017-May-15 03:00N 61°25' E 004°51'611.6
2017-May-15 02:31N 61°29' E 004°59'611.0
2017-May-15 02:00N 61°35' E 004°57'610.7
2017-May-15 01:30N 61°40' E 004°58'510.8
2017-May-15 01:00N 61°45' E 005°00'611.9
2017-May-15 00:29N 61°49' E 005°10'3 6.9
2017-May-15 00:00N 61°52' E 005°13'5 9.4
2017-May-14 23:30N 61°56' E 005°08'611.5
2017-May-14 23:00N 62°02' E 005°09'611.7
2017-May-14 22:31N 62°08' E 005°05'610.9
2017-May-14 22:00N 62°13' E 005°07'612.0
2017-May-14 21:31N 62°18' E 005°15'  
Track history (hours):
 
Tides and Currents Weather Stations Pressure Air Temp Water Temp Dewpoint Dewpoint Depression Visibility Wind Speed Wind Dir Waves Ship Positions

Pioneer Knutsen

Last reported at 2017-May-24 21:30 UTC. Time now 2017-May-24 21:37 UTC.
Position N 62°59' E 007°60'.

Length 70 m; draft 3.6 m.

Type: Ship. MMSI: 259393000.

Date/timePositionNaut miles runAvg speedWind from/ knotsBaromVisibWave heightAir tempDewpointWater temp
2017-May-24 21:30N 62°59' E 007°60'612.0
2017-May-24 21:01N 62°58' E 007°47'5 9.5
2017-May-24 20:30N 63°02' E 007°53'510.2
2017-May-24 20:00N 63°07' E 007°54'5 9.4
2017-May-24 19:30N 63°12' E 007°50'510.2
2017-May-24 19:00N 63°14' E 007°59'510.0
2017-May-24 18:30N 63°17' E 008°09'5 9.8
2017-May-24 17:59N 63°20' E 008°18'510.2
2017-May-24 17:30N 63°23' E 008°26'510.1
2017-May-24 16:59N 63°25' E 008°37'510.1
2017-May-24 16:29N 63°27' E 008°47'510.4
2017-May-24 16:00N 63°29' E 008°58'510.3
2017-May-24 15:30N 63°31' E 009°08'510.7
2017-May-24 15:00N 63°34' E 009°19'510.3
2017-May-24 14:30N 63°37' E 009°28'1110.9
2017-May-24 13:30N 63°48' E 009°34'2 4.7
2017-May-24 13:00N 63°49' E 009°38'0 0.0
2017-May-24 12:30N 63°49' E 009°38'0 0.0
2017-May-24 12:00N 63°49' E 009°38'0 0.0
2017-May-24 11:30N 63°49' E 009°38'0 0.0
2017-May-24 11:00N 63°49' E 009°38'0 0.9
2017-May-24 10:30N 63°49' E 009°38'510.7
2017-May-24 10:00N 63°44' E 009°32'611.9
2017-May-24 09:31N 63°38' E 009°29'611.4
2017-May-24 09:00N 63°34' E 009°21'612.5
2017-May-24 08:30N 63°31' E 009°08'612.2
2017-May-24 08:00N 63°28' E 008°56'612.1
2017-May-24 07:30N 63°26' E 008°43'612.3
2017-May-24 06:59N 63°23' E 008°30'612.2
2017-May-24 06:30N 63°20' E 008°19'612.5
2017-May-24 06:00N 63°16' E 008°08'612.2
2017-May-24 05:31N 63°13' E 007°57'612.3
2017-May-24 05:01N 63°10' E 007°45'612.2
2017-May-24 04:30N 63°07' E 007°34'612.0
2017-May-24 04:00N 63°04' E 007°22'612.0
2017-May-24 03:30N 63°02' E 007°10'612.0
2017-May-24 03:00N 62°60' E 006°57'612.0
2017-May-24 02:30N 62°58' E 006°45'612.1
2017-May-24 02:00N 62°55' E 006°32'611.9
2017-May-24 01:30N 62°53' E 006°21'612.0
2017-May-24 01:00N 62°50' E 006°09'611.8
2017-May-24 00:30N 62°46' E 005°60'611.7
2017-May-24 00:00N 62°42' E 005°51'611.6
2017-May-23 23:30N 62°38' E 005°42'611.4
2017-May-23 23:00N 62°33' E 005°34'611.7
2017-May-23 22:30N 62°29' E 005°26'611.8
2017-May-23 22:00N 62°24' E 005°18'612.0
2017-May-23 21:30N 62°19' E 005°11'612.5
2017-May-23 21:00N 62°14' E 005°03'612.3
2017-May-23 20:30N 62°09' E 004°56'612.4
2017-May-23 20:01N 62°03' E 004°50'612.4
2017-May-23 19:30N 61°58' E 004°44'612.4
2017-May-23 19:00N 61°52' E 004°38'612.4
2017-May-23 18:30N 61°47' E 004°33'612.2
2017-May-23 18:00N 61°41' E 004°27'612.2
2017-May-23 17:29N 61°35' E 004°26'612.3
2017-May-23 17:00N 61°29' E 004°26'612.3
2017-May-23 16:30N 61°23' E 004°26'612.5
2017-May-23 16:00N 61°16' E 004°26'612.5
2017-May-23 15:30N 61°10' E 004°25'612.7
2017-May-23 15:00N 61°04' E 004°25'612.4
2017-May-23 14:30N 60°58' E 004°30'1212.0
2017-May-23 13:30N 60°48' E 004°44'612.2
2017-May-23 13:00N 60°43' E 004°49'612.1
2017-May-23 12:30N 60°37' E 004°53'4 7.9
2017-May-23 12:00N 60°33' E 004°53'0 0.0
2017-May-23 11:29N 60°33' E 004°53'0 0.0
2017-May-23 10:59N 60°33' E 004°53'0 0.0
2017-May-23 10:29N 60°33' E 004°53'0 0.0
2017-May-23 09:59N 60°33' E 004°53'0 0.0
2017-May-23 09:29N 60°33' E 004°53'0 0.0
2017-May-23 08:58N 60°33' E 004°53'0 0.0
2017-May-23 08:28N 60°33' E 004°53'0 0.0
2017-May-23 07:58N 60°33' E 004°53'0 0.0
2017-May-23 07:25N 60°33' E 004°53'0 0.0
2017-May-23 06:58N 60°33' E 004°53'0 0.0
2017-May-23 06:30N 60°33' E 004°53'0 0.0
2017-May-23 06:00N 60°33' E 004°53'0 0.0
2017-May-23 05:30N 60°33' E 004°53'1 1.6
2017-May-23 05:00N 60°34' E 004°54'5 9.7
2017-May-23 04:30N 60°38' E 004°52'5 9.6
2017-May-23 04:00N 60°43' E 004°48'5 9.9
2017-May-23 03:30N 60°48' E 004°44'5 9.5
2017-May-23 03:00N 60°52' E 004°40'510.1
2017-May-23 02:30N 60°56' E 004°35'611.2
2017-May-23 02:00N 61°01' E 004°29'611.1
2017-May-23 01:30N 61°07' E 004°28'611.8
2017-May-23 01:00N 61°12' E 004°29'612.1
2017-May-23 00:30N 61°18' E 004°29'612.0
2017-May-23 00:00N 61°24' E 004°29'612.0
2017-May-22 23:30N 61°31' E 004°29'612.3
2017-May-22 23:00N 61°37' E 004°30'612.1
2017-May-22 22:30N 61°42' E 004°33'611.9
2017-May-22 21:59N 61°48' E 004°37'611.9
2017-May-22 21:29N 61°54' E 004°42'611.8
2017-May-22 21:00N 61°59' E 004°47'611.6
2017-May-22 20:30N 62°04' E 004°52'611.5
2017-May-22 20:00N 62°09' E 004°59'611.4
2017-May-22 19:30N 62°14' E 005°06'611.8
2017-May-22 18:59N 62°18' E 005°15'612.1
2017-May-22 18:30N 62°22' E 005°24'611.9
2017-May-22 18:00N 62°26' E 005°34'611.7
2017-May-22 17:30N 62°27' E 005°46'612.0
2017-May-22 17:00N 62°27' E 005°59'611.1
2017-May-22 16:30N 62°31' E 006°09'611.7
2017-May-22 16:00N 62°36' E 006°15'611.8
2017-May-22 15:30N 62°40' E 006°25'611.9
2017-May-22 15:00N 62°45' E 006°32'1211.8
2017-May-22 14:00N 62°55' E 006°46'611.6
2017-May-22 13:30N 62°59' E 006°54'611.9
2017-May-22 13:00N 63°01' E 007°07'611.6
2017-May-22 12:30N 63°03' E 007°19'611.5
2017-May-22 12:00N 63°06' E 007°29'611.4
2017-May-22 11:30N 63°09' E 007°40'611.4
2017-May-22 11:00N 63°12' E 007°50'611.3
2017-May-22 10:30N 63°15' E 008°02'510.8
2017-May-22 10:00N 63°18' E 008°12'611.1
2017-May-22 09:29N 63°21' E 008°21'510.9
2017-May-22 09:00N 63°24' E 008°31'510.9
2017-May-22 08:30N 63°26' E 008°42'510.7
2017-May-22 07:59N 63°28' E 008°54'510.5
2017-May-22 07:30N 63°30' E 009°05'510.3
2017-May-22 07:00N 63°32' E 009°15'511.1
2017-May-22 06:31N 63°35' E 009°26'611.0
2017-May-22 06:00N 63°40' E 009°28'611.1
2017-May-22 05:30N 63°46' E 009°32'611.5
2017-May-22 05:00N 63°51' E 009°39'510.9
2017-May-22 04:30N 63°55' E 009°47'611.8
2017-May-22 04:00N 64°01' E 009°47'510.3
2017-May-22 03:29N 64°05' E 009°55'510.9
2017-May-22 03:00N 64°08' E 010°05'611.3
2017-May-22 02:30N 64°13' E 010°12'510.7
2017-May-22 02:00N 64°17' E 010°19'510.9
2017-May-22 01:30N 64°21' E 010°26'611.4
2017-May-22 01:00N 64°27' E 010°27'611.7
2017-May-22 00:29N 64°32' E 010°36'611.9
2017-May-21 23:59N 64°37' E 010°43'612.1
2017-May-21 23:30N 64°42' E 010°51'612.1
2017-May-21 23:00N 64°46' E 011°01'612.1
2017-May-21 22:30N 64°50' E 011°11'612.0
2017-May-21 22:00N 64°54' E 011°21'611.9
2017-May-21 21:31N 64°58' E 011°32'611.4
2017-May-21 21:00N 65°02' E 011°42'611.6
2017-May-21 20:30N 65°07' E 011°48'611.8
2017-May-21 20:00N 65°12' E 011°53'611.9
2017-May-21 19:30N 65°18' E 011°59'4 9.1
2017-May-21 19:00N 65°22' E 012°00'510.5
2017-May-21 18:30N 65°28' E 011°57'612.0
2017-May-21 18:00N 65°33' E 012°04'611.7
2017-May-21 17:30N 65°38' E 012°12'612.3
2017-May-21 17:00N 65°43' E 012°17'612.1
2017-May-21 16:30N 65°48' E 012°26'611.8
2017-May-21 16:00N 65°53' E 012°35'611.5
2017-May-21 15:30N 65°57' E 012°44'5 9.6
2017-May-21 14:59N 65°57' E 012°56'611.5
2017-May-21 14:30N 65°54' E 013°08'3 3.3
2017-May-21 13:28N 65°51' E 013°11'0 0.0
2017-May-21 13:00N 65°51' E 013°11'0 0.0
2017-May-21 12:30N 65°51' E 013°11'0 0.0
2017-May-21 11:59N 65°51' E 013°11'0 0.0
2017-May-21 11:29N 65°51' E 013°11'0 0.0
2017-May-21 10:56N 65°51' E 013°11'0 0.0
2017-May-21 10:26N 65°51' E 013°11'0 0.0
2017-May-21 09:59N 65°51' E 013°11'0 0.0
2017-May-21 09:30N 65°51' E 013°11'3 6.4
2017-May-21 08:59N 65°54' E 013°08'611.7
2017-May-21 08:30N 65°57' E 012°56'5 9.3
2017-May-21 08:00N 65°57' E 012°45'511.1
2017-May-21 07:30N 65°53' E 012°35'610.9
2017-May-21 07:00N 65°49' E 012°28'611.2
2017-May-21 06:30N 65°45' E 012°19'611.6
2017-May-21 06:00N 65°39' E 012°13'611.1
2017-May-21 05:30N 65°34' E 012°07'611.2
2017-May-21 05:00N 65°29' E 011°59'510.5
2017-May-21 04:30N 65°24' E 011°58'5 9.6
2017-May-21 04:00N 65°20' E 012°01'611.6
2017-May-21 03:30N 65°15' E 011°55'611.7
2017-May-21 03:00N 65°09' E 011°50'611.6
2017-May-21 02:30N 65°04' E 011°45'611.4
2017-May-21 02:00N 65°00' E 011°35'611.7
2017-May-21 01:30N 64°56' E 011°25'611.6
2017-May-21 01:00N 64°52' E 011°16'611.2
2017-May-21 00:30N 64°48' E 011°06'611.7
2017-May-21 00:00N 64°44' E 010°56'611.4
2017-May-20 23:30N 64°40' E 010°47'611.3
2017-May-20 22:59N 64°35' E 010°40'611.2
2017-May-20 22:30N 64°30' E 010°33'510.2
2017-May-20 22:00N 64°26' E 010°27'511.1
2017-May-20 21:30N 64°21' E 010°22'611.4
2017-May-20 21:00N 64°15' E 010°19'611.2
2017-May-20 20:30N 64°11' E 010°09'510.6
2017-May-20 19:59N 64°07' E 010°02'510.9
2017-May-20 19:30N 64°04' E 009°52'5 9.7
2017-May-20 19:00N 63°60' E 009°47'510.8
2017-May-20 18:30N 63°54' E 009°46'510.6
2017-May-20 18:00N 63°50' E 009°38'510.8
2017-May-20 17:30N 63°46' E 009°32'510.7
2017-May-20 17:00N 63°41' E 009°29'510.3
2017-May-20 16:30N 63°35' E 009°26'611.1
2017-May-20 15:59N 63°33' E 009°16'511.0
2017-May-20 15:30N 63°30' E 009°05'510.6
2017-May-20 15:00N 63°28' E 008°54'610.9
2017-May-20 14:30N 63°26' E 008°43'1010.6
2017-May-20 13:30N 63°21' E 008°22'510.6
2017-May-20 13:00N 63°18' E 008°13'5 9.9
2017-May-20 12:30N 63°15' E 008°03'510.1
2017-May-20 12:00N 63°13' E 007°54'510.2
2017-May-20 11:30N 63°09' E 007°45'4 7.1
2017-May-20 11:00N 63°06' E 007°45'1 2.6
2017-May-20 10:29N 63°06' E 007°48'0 0.0
2017-May-20 09:59N 63°06' E 007°48'0 0.0
2017-May-20 09:29N 63°06' E 007°48'0 0.0
2017-May-20 08:59N 63°06' E 007°48'1 1.7
2017-May-20 08:30N 63°06' E 007°46'5 9.7
2017-May-20 08:00N 63°07' E 007°36'5 9.8
2017-May-20 07:30N 63°05' E 007°27'5 9.4
2017-May-20 07:00N 63°03' E 007°17'5 9.4
2017-May-20 06:30N 63°01' E 007°07'4 8.8
2017-May-20 06:00N 62°60' E 006°58'4 8.5
2017-May-20 05:30N 62°57' E 006°50'4 8.2
2017-May-20 05:00N 62°54' E 006°45'4 9.0
2017-May-20 04:30N 62°50' E 006°40'510.1
2017-May-20 04:00N 62°46' E 006°34'510.8
2017-May-20 03:30N 62°41' E 006°28'510.5
2017-May-20 03:00N 62°37' E 006°20'510.6
2017-May-20 02:30N 62°34' E 006°12'510.7
2017-May-20 02:00N 62°29' E 006°07'510.4
2017-May-20 01:30N 62°24' E 006°04'5 9.8
2017-May-20 01:00N 62°19' E 006°04'610.9
2017-May-20 00:30N 62°15' E 005°57'510.5
2017-May-20 00:00N 62°12' E 005°47'611.2
2017-May-19 23:30N 62°11' E 005°36'510.5
2017-May-19 23:00N 62°11' E 005°24'5 9.6
2017-May-19 22:30N 62°13' E 005°15'4 8.5
2017-May-19 22:00N 62°12' E 005°06'5 9.3
2017-May-19 21:30N 62°07' E 005°05'612.0
2017-May-19 21:00N 62°02' E 005°09'611.0
2017-May-19 20:30N 61°56' E 005°08'5 9.2
2017-May-19 20:00N 61°52' E 005°13'3 6.7
2017-May-19 19:30N 61°49' E 005°11'611.0
2017-May-19 19:00N 61°46' E 005°02'510.6
2017-May-19 18:30N 61°41' E 004°58'611.2
2017-May-19 18:00N 61°35' E 004°57'510.5
2017-May-19 17:29N 61°30' E 004°60'611.7
2017-May-19 17:00N 61°26' E 004°52'611.2
2017-May-19 16:30N 61°20' E 004°49'611.4
2017-May-19 15:59N 61°15' E 004°55'511.0
2017-May-19 15:30N 61°10' E 005°01'510.9
2017-May-19 15:00N 61°05' E 005°01'1110.7
2017-May-19 14:00N 60°57' E 004°47'611.2
2017-May-19 13:30N 60°51' E 004°46'510.3
2017-May-19 13:00N 60°46' E 004°47'611.1
2017-May-19 12:30N 60°41' E 004°51'510.8
2017-May-19 12:00N 60°36' E 004°54'3 5.3
2017-May-19 11:29N 60°33' E 004°53'0 0.0
2017-May-19 10:59N 60°33' E 004°53'0 0.0
2017-May-19 10:28N 60°33' E 004°53'0 0.0
2017-May-19 09:55N 60°33' E 004°53'0 0.0
2017-May-19 09:28N 60°33' E 004°53'0 0.0
2017-May-19 08:58N 60°33' E 004°53'0 0.0
2017-May-19 08:28N 60°33' E 004°53'0 0.0
2017-May-19 08:00N 60°33' E 004°53'0 0.0
2017-May-19 07:30N 60°33' E 004°53'0 0.0
2017-May-19 06:57N 60°33' E 004°53'0 0.0
2017-May-19 06:30N 60°33' E 004°53'0 0.0
2017-May-19 05:59N 60°33' E 004°53'0 0.0
2017-May-19 05:26N 60°33' E 004°53'2 3.9
2017-May-19 05:00N 60°35' E 004°54'510.4
2017-May-19 04:30N 60°40' E 004°50'611.9
2017-May-19 04:00N 60°45' E 004°46'510.8
2017-May-19 03:30N 60°51' E 004°45'5 9.9
2017-May-19 03:00N 60°55' E 004°46'5 9.2
2017-May-19 02:30N 61°00' E 004°48'510.2
2017-May-19 02:00N 61°03' E 004°56'510.2
2017-May-19 01:30N 61°06' E 005°05'4 8.3
2017-May-19 01:00N 61°10' E 005°04'5 9.0
2017-May-19 00:30N 61°14' E 004°59'4 7.1
2017-May-19 00:00N 61°17' E 004°56'4 8.8
2017-May-18 23:30N 61°20' E 005°03'5 9.9
2017-May-18 22:59N 61°24' E 004°59'5 9.7
2017-May-18 22:30N 61°29' E 004°59'5 9.3
2017-May-18 22:00N 61°34' E 004°59'4 8.6
2017-May-18 21:30N 61°38' E 004°59'5 9.6
2017-May-18 21:00N 61°43' E 004°57'5 9.3
2017-May-18 20:30N 61°46' E 005°03'5 9.5
2017-May-18 20:00N 61°49' E 005°11'3 6.4
2017-May-18 19:30N 61°52' E 005°13'5 9.4
2017-May-18 19:00N 61°56' E 005°08'510.6
2017-May-18 18:30N 62°02' E 005°09'611.5
2017-May-18 18:00N 62°07' E 005°05'510.6
2017-May-18 17:30N 62°12' E 005°07'5 9.5
2017-May-18 17:00N 62°12' E 005°17'5 9.7
2017-May-18 16:30N 62°12' E 005°27'611.3
2017-May-18 16:00N 62°11' E 005°39'611.3
2017-May-18 15:30N 62°13' E 005°51'511.0
2017-May-18 15:00N 62°17' E 005°59'611.6
2017-May-18 14:31N 62°21' E 006°07'10 9.9
2017-May-18 13:30N 62°31' E 006°08'611.4
2017-May-18 13:00N 62°36' E 006°16'611.7
2017-May-18 12:30N 62°40' E 006°25'612.1
2017-May-18 12:00N 62°45' E 006°32'612.3
2017-May-18 11:30N 62°50' E 006°39'612.3
2017-May-18 11:00N 62°55' E 006°47'611.7
2017-May-18 10:30N 62°59' E 006°55'611.9
2017-May-18 10:00N 63°01' E 007°07'611.7
2017-May-18 09:30N 63°03' E 007°20'612.1
2017-May-18 09:00N 63°06' E 007°31'611.9
2017-May-18 08:30N 63°10' E 007°42'612.0
2017-May-18 08:00N 63°13' E 007°53'612.2
2017-May-18 07:30N 63°16' E 008°05'612.0
2017-May-18 07:00N 63°19' E 008°17'612.0
2017-May-18 06:30N 63°23' E 008°26'612.4
2017-May-18 06:00N 63°26' E 008°39'612.4
2017-May-18 05:30N 63°28' E 008°52'612.2
2017-May-18 05:00N 63°30' E 009°05'612.6
2017-May-18 04:29N 63°33' E 009°17'611.9
2017-May-18 04:00N 63°37' E 009°27'611.2
2017-May-18 03:30N 63°42' E 009°30'611.6
2017-May-18 03:01N 63°48' E 009°34'612.1
2017-May-18 02:30N 63°53' E 009°43'611.2
2017-May-18 02:00N 63°58' E 009°47'611.2
2017-May-18 01:30N 64°03' E 009°50'611.9
2017-May-18 01:00N 64°07' E 010°01'611.6
2017-May-18 00:30N 64°11' E 010°10'611.6
2017-May-18 00:00N 64°15' E 010°19'611.8
2017-May-17 23:30N 64°21' E 010°22'611.8
2017-May-17 23:00N 64°27' E 010°27'611.3
2017-May-17 22:29N 64°31' E 010°35'611.6
2017-May-17 22:00N 64°36' E 010°40'611.8
2017-May-17 21:30N 64°41' E 010°49'611.9
2017-May-17 21:00N 64°45' E 010°59'612.2
2017-May-17 20:30N 64°49' E 011°09'611.6
2017-May-17 20:00N 64°53' E 011°19'611.7
2017-May-17 19:30N 64°57' E 011°29'611.9
2017-May-17 19:01N 65°01' E 011°40'612.2
2017-May-17 18:30N 65°06' E 011°48'612.2
2017-May-17 18:00N 65°12' E 011°52'612.1
2017-May-17 17:30N 65°17' E 011°58'510.0
2017-May-17 17:00N 65°22' E 012°00'510.3
2017-May-17 16:30N 65°27' E 011°57'611.8
2017-May-17 16:00N 65°33' E 012°03'611.6
2017-May-17 15:29N 65°37' E 012°12'611.8
2017-May-17 14:59N 65°43' E 012°16'1111.3
2017-May-17 14:00N 65°52' E 012°33'611.1
2017-May-17 13:28N 65°57' E 012°42'510.3
2017-May-17 12:59N 65°58' E 012°53'611.7
2017-May-17 12:30N 65°55' E 013°04'5 4.2
2017-May-17 11:19N 65°51' E 013°11'0 0.0
2017-May-17 10:57N 65°51' E 013°11'0 0.0
2017-May-17 10:30N 65°51' E 013°11'0 0.0
2017-May-17 09:57N 65°51' E 013°11'0 0.0
2017-May-17 09:30N 65°51' E 013°11'0 0.0
2017-May-17 08:59N 65°51' E 013°11'910.8
2017-May-17 08:11N 65°57' E 012°57'0 0.6
2017-May-17 07:58N 65°57' E 012°56'3 7.1
2017-May-17 07:30N 65°58' E 012°48'611.7
2017-May-17 07:00N 65°55' E 012°38'611.5
2017-May-17 06:30N 65°50' E 012°30'611.9
2017-May-17 06:00N 65°45' E 012°20'612.6
2017-May-17 05:31N 65°40' E 012°14'612.2
2017-May-17 05:00N 65°34' E 012°07'612.3
2017-May-17 04:30N 65°29' E 011°59'611.3
2017-May-17 04:00N 65°23' E 011°59'5 9.3
2017-May-17 03:30N 65°19' E 011°60'612.5
2017-May-17 03:01N 65°13' E 011°54'612.3
2017-May-17 02:30N 65°07' E 011°50'612.4
2017-May-17 02:00N 65°02' E 011°42'611.6
2017-May-17 01:31N 64°58' E 011°32'612.1
2017-May-17 01:01N 64°54' E 011°21'612.7
2017-May-17 00:31N 64°50' E 011°10'612.1
2017-May-17 00:00N 64°45' E 011°00'611.7
2017-May-16 23:30N 64°41' E 010°50'611.9
2017-May-16 23:00N 64°37' E 010°41'612.0
2017-May-16 22:30N 64°32' E 010°33'611.9
2017-May-16 22:00N 64°27' E 010°27'611.0
2017-May-16 21:30N 64°21' E 010°26'511.0
2017-May-16 21:00N 64°17' E 010°19'611.3
2017-May-16 20:30N 64°12' E 010°11'611.9
2017-May-16 20:00N 64°07' E 010°03'612.3
2017-May-16 19:30N 64°04' E 009°52'611.0
2017-May-16 18:59N 63°59' E 009°47'611.8
2017-May-16 18:30N 63°53' E 009°44'612.1
2017-May-16 18:00N 63°49' E 009°35'2 3.1
2017-May-16 17:30N 63°49' E 009°38'0 0.0
2017-May-16 16:58N 63°49' E 009°38'0 0.0
2017-May-16 16:28N 63°49' E 009°38'0 0.0
2017-May-16 15:58N 63°49' E 009°38'0 0.0
2017-May-16 15:28N 63°49' E 009°38'0 0.0
2017-May-16 14:58N 63°49' E 009°38'0 0.0
2017-May-16 14:30N 63°49' E 009°38'8 8.2
2017-May-16 13:30N 63°42' E 009°30'510.9
2017-May-16 13:00N 63°37' E 009°24'611.0
2017-May-16 12:30N 63°33' E 009°15'612.3
2017-May-16 12:00N 63°30' E 009°04'611.9
2017-May-16 11:30N 63°27' E 008°52'612.1
2017-May-16 11:00N 63°25' E 008°39'612.1
2017-May-16 10:30N 63°22' E 008°27'612.4
2017-May-16 10:00N 63°19' E 008°16'612.5
2017-May-16 09:30N 63°15' E 008°05'612.4
2017-May-16 09:00N 63°12' E 007°53'612.0
2017-May-16 08:30N 63°09' E 007°41'612.4
2017-May-16 08:00N 63°06' E 007°30'612.0
2017-May-16 07:30N 63°03' E 007°18'611.7
2017-May-16 07:00N 63°01' E 007°06'612.1
2017-May-16 06:30N 62°59' E 006°53'612.0
2017-May-16 06:00N 62°54' E 006°45'612.3
2017-May-16 05:30N 62°49' E 006°38'612.1
2017-May-16 05:00N 62°44' E 006°31'612.1
2017-May-16 04:30N 62°39' E 006°24'611.0
2017-May-16 03:59N 62°35' E 006°15'611.5
2017-May-16 03:30N 62°30' E 006°09'510.9
2017-May-16 03:00N 62°27' E 005°59'611.4
2017-May-16 02:30N 62°27' E 005°46'611.7
2017-May-16 02:00N 62°26' E 005°34'611.5
2017-May-16 01:30N 62°23' E 005°24'611.5
2017-May-16 01:00N 62°18' E 005°16'611.8
2017-May-16 00:30N 62°14' E 005°08'611.3
2017-May-16 00:00N 62°08' E 005°05'611.7
2017-May-15 23:30N 62°03' E 005°09'611.4
2017-May-15 23:00N 61°57' E 005°09'5 9.2
2017-May-15 22:30N 61°53' E 005°12'3 6.8
2017-May-15 22:00N 61°49' E 005°11'612.3
2017-May-15 21:29N 61°45' E 005°01'611.4
2017-May-15 21:00N 61°40' E 004°58'611.3
2017-May-15 20:29N 61°34' E 004°58'511.0
2017-May-15 20:00N 61°29' E 004°59'612.6
2017-May-15 19:30N 61°24' E 004°50'611.3
2017-May-15 19:00N 61°18' E 004°52'612.1
2017-May-15 18:30N 61°13' E 004°58'611.7
2017-May-15 18:00N 61°08' E 005°02'611.4
2017-May-15 17:30N 61°03' E 004°56'611.5
2017-May-15 16:59N 60°59' E 004°47'611.4
2017-May-15 16:29N 60°53' E 004°46'611.8
2017-May-15 16:01N 60°48' E 004°45'612.1
2017-May-15 15:30N 60°42' E 004°50'612.2
2017-May-15 15:00N 60°36' E 004°54'3 3.0
2017-May-15 14:01N 60°33' E 004°53'0 0.0
2017-May-15 13:30N 60°33' E 004°53'0 0.0
2017-May-15 13:00N 60°33' E 004°53'0 0.0
2017-May-15 12:30N 60°33' E 004°53'0 0.0
2017-May-15 12:00N 60°33' E 004°53'0 0.0
2017-May-15 11:29N 60°33' E 004°53'0 0.0
2017-May-15 10:59N 60°33' E 004°53'0 0.0
2017-May-15 10:29N 60°33' E 004°53'0 0.0
2017-May-15 09:59N 60°33' E 004°53'0 0.0
2017-May-15 09:29N 60°33' E 004°53'0 0.0
2017-May-15 08:58N 60°33' E 004°53'0 0.0
2017-May-15 08:28N 60°33' E 004°53'2 4.5
2017-May-15 08:00N 60°35' E 004°54'611.6
2017-May-15 07:30N 60°41' E 004°50'611.8
2017-May-15 07:00N 60°46' E 004°46'510.3
2017-May-15 06:29N 60°51' E 004°45'5 9.7
2017-May-15 06:00N 60°56' E 004°46'510.0
2017-May-15 05:30N 61°01' E 004°50'612.1
2017-May-15 05:00N 61°05' E 004°59'611.4
2017-May-15 04:30N 61°10' E 005°01'510.9
2017-May-15 04:00N 61°15' E 004°54'510.9
2017-May-15 03:31N 61°19' E 004°48'611.4
2017-May-15 03:00N 61°25' E 004°51'611.6
2017-May-15 02:31N 61°29' E 004°59'611.0
2017-May-15 02:00N 61°35' E 004°57'610.7
2017-May-15 01:30N 61°40' E 004°58'510.8
2017-May-15 01:00N 61°45' E 005°00'611.9
2017-May-15 00:29N 61°49' E 005°10'3 6.9
2017-May-15 00:00N 61°52' E 005°13'5 9.4
2017-May-14 23:30N 61°56' E 005°08'611.5
2017-May-14 23:00N 62°02' E 005°09'611.7
2017-May-14 22:31N 62°08' E 005°05'610.9
2017-May-14 22:00N 62°13' E 005°07'612.0
2017-May-14 21:31N 62°18' E 005°15'  

Dump ship's entire track history